createdAt,value
2024-02-10T00:00:41.144Z,72.10
2024-02-10T00:03:08.456Z,72.55
2024-02-10T00:05:35.854Z,72.48
2024-02-10T00:08:02.882Z,72.38
2024-02-10T00:10:29.924Z,73.27
2024-02-10T00:12:57.548Z,72.94
2024-02-10T00:15:26.401Z,70.96
2024-02-10T00:17:53.520Z,71.12
2024-02-10T00:20:20.752Z,70.96
2024-02-10T00:22:51.093Z,70.76
2024-02-10T00:25:18.087Z,70.47
2024-02-10T00:27:45.067Z,71.68
2024-02-10T00:30:12.279Z,72.45
2024-02-10T00:32:39.866Z,73.47
2024-02-10T00:35:08.517Z,72.54
2024-02-10T00:37:36.099Z,72.04
2024-02-10T00:40:04.835Z,71.75
2024-02-10T00:42:31.848Z,72.13
2024-02-10T00:44:59.960Z,72.04
2024-02-10T00:47:27.410Z,71.99
2024-02-10T00:49:54.450Z,71.56
2024-02-10T00:52:21.555Z,71.91
2024-02-10T00:54:48.552Z,74.60
2024-02-10T00:57:15.815Z,75.88
2024-02-10T00:59:44.121Z,76.12
2024-02-10T01:02:12.889Z,75.48
2024-02-10T01:04:40.056Z,74.62
2024-02-10T01:07:10.438Z,74.16
2024-02-10T01:09:37.823Z,73.38
2024-02-10T01:12:06.042Z,73.05
2024-02-10T01:14:33.029Z,72.98
2024-02-10T01:17:02.960Z,73.77
2024-02-10T01:19:30.081Z,73.22
2024-02-10T01:22:01.576Z,72.92
2024-02-10T01:24:28.945Z,73.06
2024-02-10T01:27:01.070Z,72.99
2024-02-10T01:29:30.817Z,73.12
2024-02-10T01:31:57.885Z,73.48
2024-02-10T01:34:24.935Z,73.32
2024-02-10T01:36:54.700Z,72.64
2024-02-10T01:39:22.119Z,73.48
2024-02-10T01:41:49.424Z,73.10
2024-02-10T01:44:18.673Z,72.86
2024-02-10T01:46:45.839Z,74.23
2024-02-10T01:49:14.073Z,73.03
2024-02-10T01:51:41.035Z,72.48
2024-02-10T01:54:10.250Z,72.75
2024-02-10T01:56:40.073Z,73.01
2024-02-10T01:59:07.045Z,72.55
2024-02-10T02:01:34.154Z,73.56
2024-02-10T02:04:01.554Z,73.97
2024-02-10T02:06:28.811Z,73.32
2024-02-10T02:08:55.759Z,72.82
2024-02-10T02:11:22.755Z,72.79
2024-02-10T02:13:49.914Z,72.82
2024-02-10T02:16:18.353Z,72.21
2024-02-10T02:18:50.659Z,71.39
2024-02-10T02:21:17.634Z,71.68
2024-02-10T02:23:44.578Z,70.80
2024-02-10T02:26:11.964Z,71.51
2024-02-10T02:28:39.489Z,71.49
2024-02-10T02:31:06.917Z,71.45
2024-02-10T02:33:34.173Z,71.07
2024-02-10T02:36:01.804Z,72.15
2024-02-10T02:38:29.224Z,72.25
2024-02-10T02:40:56.821Z,72.37
2024-02-10T02:43:24.018Z,71.65
2024-02-10T02:45:51.013Z,71.09
2024-02-10T02:48:18.694Z,70.78
2024-02-10T02:50:45.949Z,71.85
2024-02-10T02:53:13.210Z,71.67
2024-02-10T02:55:40.671Z,72.53
2024-02-10T02:58:07.724Z,72.16
2024-02-10T03:00:34.733Z,72.01
2024-02-10T03:03:03.408Z,71.99
2024-02-10T03:05:31.593Z,72.07
2024-02-10T03:07:58.726Z,72.48
2024-02-10T03:10:26.023Z,71.84
2024-02-10T03:12:53.469Z,71.80
2024-02-10T03:15:20.452Z,71.87
2024-02-10T03:17:51.348Z,71.50
2024-02-10T03:20:18.860Z,72.25
2024-02-10T03:22:46.074Z,72.22
2024-02-10T03:25:13.130Z,72.40
2024-02-10T03:27:46.060Z,72.19
2024-02-10T03:30:13.284Z,72.78
2024-02-10T03:32:40.787Z,71.14
2024-02-10T03:35:10.843Z,70.61
2024-02-10T03:37:40.998Z,70.87
2024-02-10T03:40:10.384Z,70.79
2024-02-10T03:42:37.708Z,70.41
2024-02-10T03:45:07.236Z,70.72
2024-02-10T03:47:38.417Z,70.91
2024-02-10T03:50:05.785Z,70.62
2024-02-10T03:52:33.174Z,71.13
2024-02-10T03:55:00.432Z,70.55
2024-02-10T03:57:30.576Z,71.06
2024-02-10T03:59:57.508Z,71.95
2024-02-10T04:02:26.689Z,72.16
2024-02-10T04:04:57.500Z,72.87
2024-02-10T04:07:24.933Z,73.09
2024-02-10T04:09:53.528Z,72.96
2024-02-10T04:12:20.539Z,73.06
2024-02-10T04:14:47.696Z,73.10
2024-02-10T04:17:14.719Z,72.43
2024-02-10T04:19:41.683Z,71.11
2024-02-10T04:22:08.656Z,71.67
2024-02-10T04:24:35.609Z,71.70
2024-02-10T04:27:03.843Z,70.78
2024-02-10T04:29:32.145Z,71.94
2024-02-10T04:32:02.026Z,72.32
2024-02-10T04:34:29.339Z,71.96
2024-02-10T04:36:57.452Z,71.79
2024-02-10T04:39:25.988Z,71.19
2024-02-10T04:41:52.936Z,71.25
2024-02-10T04:44:19.975Z,71.30
2024-02-10T04:46:46.983Z,71.02
2024-02-10T04:49:14.031Z,69.46
2024-02-10T04:51:43.107Z,70.41
2024-02-10T04:54:10.526Z,70.50
2024-02-10T04:56:38.977Z,71.47
2024-02-10T04:59:06.256Z,72.29
2024-02-10T05:01:33.729Z,72.72
2024-02-10T05:04:00.871Z,72.20
2024-02-10T05:06:29.685Z,71.96
2024-02-10T05:08:56.665Z,72.19
2024-02-10T05:11:25.206Z,72.41
2024-02-10T05:13:52.098Z,72.05
2024-02-10T05:16:19.435Z,73.17
2024-02-10T05:18:50.293Z,73.02
2024-02-10T05:21:18.372Z,72.94
2024-02-10T05:23:45.284Z,73.96
2024-02-10T05:26:12.494Z,73.72
2024-02-10T05:28:39.293Z,75.91
2024-02-10T05:31:06.357Z,75.93
2024-02-10T05:33:37.032Z,74.85
2024-02-10T05:36:04.718Z,74.46
2024-02-10T05:38:34.537Z,74.23
2024-02-10T05:41:01.797Z,72.97
2024-02-10T05:43:29.051Z,73.18
2024-02-10T05:45:58.935Z,73.02
2024-02-10T05:48:25.810Z,73.39
2024-02-10T05:50:52.975Z,74.52
2024-02-10T05:53:19.981Z,74.43
2024-02-10T05:55:46.846Z,74.76
2024-02-10T05:58:13.644Z,72.75
2024-02-10T06:00:40.543Z,72.10
2024-02-10T06:03:07.355Z,71.72
2024-02-10T06:05:34.321Z,71.96
2024-02-10T06:08:03.160Z,72.37
2024-02-10T06:10:30.915Z,70.50
2024-02-10T06:12:58.239Z,70.63
2024-02-10T06:15:25.620Z,70.37
2024-02-10T06:17:54.965Z,70.24
2024-02-10T06:20:23.427Z,71.67
2024-02-10T06:22:51.508Z,71.54
2024-02-10T06:25:19.264Z,71.49
2024-02-10T06:27:47.137Z,70.81
2024-02-10T06:30:17.169Z,71.04
2024-02-10T06:32:49.717Z,70.03
2024-02-10T06:35:16.888Z,70.49
2024-02-10T06:37:43.985Z,70.45
2024-02-10T06:40:11.342Z,70.39
2024-02-10T06:42:39.418Z,70.46
2024-02-10T06:45:07.019Z,69.92
2024-02-10T06:47:35.151Z,69.72
2024-02-10T06:50:02.440Z,70.02
2024-02-10T06:52:29.616Z,70.01
2024-02-10T06:54:58.901Z,70.35
2024-02-10T06:57:25.866Z,70.74
2024-02-10T06:59:53.233Z,71.86
2024-02-10T07:02:20.667Z,71.99
2024-02-10T07:04:48.911Z,71.96
2024-02-10T07:07:15.997Z,71.54
2024-02-10T07:09:43.348Z,72.23
2024-02-10T07:12:10.283Z,72.00
2024-02-10T07:14:40.507Z,73.40
2024-02-10T07:17:10.457Z,73.60
2024-02-10T07:19:37.458Z,73.20
2024-02-10T07:22:04.636Z,72.38
2024-02-10T07:24:34.871Z,74.30
2024-02-10T07:27:02.381Z,75.97
2024-02-10T07:29:29.547Z,75.70
2024-02-10T07:31:56.783Z,74.30
2024-02-10T07:34:26.722Z,73.65
2024-02-10T07:36:57.318Z,72.45
2024-02-10T07:39:26.168Z,72.86
2024-02-10T07:41:54.525Z,72.93
2024-02-10T07:44:21.724Z,72.71
2024-02-10T07:46:48.897Z,72.47
2024-02-10T07:49:18.900Z,72.34
2024-02-10T07:51:46.738Z,72.76
2024-02-10T07:54:16.630Z,73.00
2024-02-10T07:56:46.352Z,73.54
2024-02-10T07:59:13.487Z,72.60
2024-02-10T08:01:40.879Z,73.47
2024-02-10T08:04:12.693Z,72.50
2024-02-10T08:06:39.530Z,73.22
2024-02-10T08:09:06.615Z,73.84
2024-02-10T08:11:33.492Z,73.26
2024-02-10T08:14:00.357Z,74.05
2024-02-10T08:16:27.499Z,73.74
2024-02-10T08:18:55.294Z,74.89
2024-02-10T08:21:23.662Z,74.78
2024-02-10T08:23:50.500Z,76.52
2024-02-10T08:26:18.029Z,75.40
2024-02-10T08:28:45.232Z,74.53
2024-02-10T08:31:12.540Z,73.17
2024-02-10T08:33:39.566Z,72.99
2024-02-10T08:36:07.638Z,73.63
2024-02-10T08:38:34.575Z,73.39
2024-02-10T08:41:01.628Z,73.23
2024-02-10T08:43:28.709Z,73.98
2024-02-10T08:45:57.825Z,75.27
2024-02-10T08:48:26.867Z,74.06
2024-02-10T08:50:55.151Z,73.48
2024-02-10T08:53:27.288Z,72.34
2024-02-10T08:55:54.259Z,73.22
2024-02-10T08:58:21.249Z,73.27
2024-02-10T09:00:48.333Z,74.29
2024-02-10T09:03:15.449Z,73.98
2024-02-10T09:05:42.880Z,73.75
2024-02-10T09:08:09.942Z,72.51
2024-02-10T09:10:38.940Z,72.84
2024-02-10T09:13:06.440Z,73.88
2024-02-10T09:15:33.393Z,73.18
2024-02-10T09:18:03.358Z,73.57
2024-02-10T09:20:30.842Z,73.40
2024-02-10T09:22:58.136Z,73.29
2024-02-10T09:25:25.168Z,72.63
2024-02-10T09:27:52.859Z,73.25
2024-02-10T09:30:19.874Z,75.09
2024-02-10T09:32:47.241Z,74.27
2024-02-10T09:35:15.515Z,75.71
2024-02-10T09:37:46.993Z,73.98
2024-02-10T09:40:14.206Z,74.49
2024-02-10T09:42:42.348Z,73.35
2024-02-10T09:45:09.677Z,72.36
2024-02-10T09:47:36.663Z,73.11
2024-02-10T09:50:04.029Z,72.77
2024-02-10T09:52:34.306Z,71.53
2024-02-10T09:55:01.349Z,70.85
2024-02-10T09:57:28.573Z,70.42
2024-02-10T09:59:55.515Z,71.03
2024-02-10T10:02:25.456Z,70.44
2024-02-10T10:04:52.972Z,72.38
2024-02-10T10:07:22.736Z,70.99
2024-02-10T10:09:51.308Z,69.74
2024-02-10T10:12:18.375Z,69.93
2024-02-10T10:14:45.676Z,69.16
2024-02-10T10:17:12.715Z,68.34
2024-02-10T10:19:39.836Z,68.90
2024-02-10T10:22:07.812Z,69.69
2024-02-10T10:24:35.434Z,68.93
2024-02-10T10:27:02.744Z,68.92
2024-02-10T10:29:29.795Z,68.99
2024-02-10T10:31:58.688Z,70.20
2024-02-10T10:34:50.608Z,69.09
2024-02-10T10:40:29.301Z,70.14
2024-02-10T10:43:00.534Z,69.64
2024-02-10T10:45:28.707Z,71.05
2024-02-10T10:48:08.429Z,70.13
2024-02-10T10:50:35.984Z,69.26
2024-02-10T10:53:04.827Z,68.35
2024-02-10T10:55:37.842Z,67.65
2024-02-10T10:58:08.857Z,67.39
2024-02-10T11:00:36.569Z,66.43
2024-02-10T11:03:04.500Z,66.02
2024-02-10T11:05:34.820Z,65.44
2024-02-10T11:08:02.912Z,65.97
2024-02-10T11:10:36.386Z,65.14
2024-02-10T11:13:06.723Z,64.94
2024-02-10T11:15:34.363Z,64.47
2024-02-10T11:18:01.625Z,64.31
2024-02-10T11:20:33.585Z,64.29
2024-02-10T11:23:18.973Z,64.70
2024-02-10T11:25:46.454Z,64.84
2024-02-10T11:28:25.086Z,64.97
2024-02-10T11:30:51.904Z,65.03
2024-02-10T11:33:23.298Z,64.52
2024-02-10T11:35:51.538Z,64.38
2024-02-10T11:38:18.435Z,65.51
2024-02-10T11:40:45.862Z,65.20
2024-02-10T11:43:13.668Z,65.69
2024-02-10T11:45:58.084Z,65.55
2024-02-10T11:48:27.502Z,64.94
2024-02-10T11:51:03.566Z,64.40
2024-02-10T11:53:31.750Z,64.82
2024-02-10T11:56:01.684Z,64.81
2024-02-10T11:58:29.782Z,63.83
2024-02-10T12:00:57.863Z,63.55
2024-02-10T12:03:25.214Z,63.17
2024-02-10T12:05:56.231Z,63.66
2024-02-10T12:08:23.051Z,63.24
2024-02-10T12:10:51.430Z,63.10
2024-02-10T12:13:21.659Z,61.83
2024-02-10T12:15:48.448Z,62.13
2024-02-10T12:18:15.690Z,62.91
2024-02-10T12:20:42.594Z,63.04
2024-02-10T12:23:13.075Z,63.72
2024-02-10T12:26:10.233Z,62.66
2024-02-10T12:28:53.368Z,61.86
2024-02-10T12:31:33.710Z,61.26
2024-02-10T12:34:01.315Z,60.74
2024-02-10T12:36:36.788Z,60.80
2024-02-10T12:39:16.081Z,61.93
2024-02-10T12:41:49.416Z,62.90
2024-02-10T12:44:35.496Z,62.54
2024-02-10T12:47:13.831Z,63.08
2024-02-10T12:49:47.150Z,63.02
2024-02-10T12:52:19.143Z,61.78
2024-02-10T12:55:34.999Z,63.00
2024-02-10T13:00:58.619Z,65.14
2024-02-10T13:03:25.523Z,66.04
2024-02-10T13:05:52.388Z,66.11
2024-02-10T13:08:19.201Z,66.44
2024-02-10T13:10:46.251Z,65.81
2024-02-10T13:13:15.052Z,65.40
2024-02-10T13:15:43.951Z,65.61
2024-02-10T13:18:11.801Z,65.80
2024-02-10T13:20:41.260Z,65.52
2024-02-10T13:23:08.588Z,66.22
2024-02-10T13:25:36.918Z,65.29
2024-02-10T13:28:06.198Z,64.76
2024-02-10T13:30:32.970Z,65.23
2024-02-10T13:32:59.756Z,66.25
2024-02-10T13:35:28.634Z,65.56
2024-02-10T13:37:56.345Z,66.76
2024-02-10T13:40:25.601Z,66.60
2024-02-10T13:42:52.574Z,66.18
2024-02-10T13:45:20.339Z,66.35
2024-02-10T13:47:47.571Z,67.08
2024-02-10T13:50:20.274Z,66.42
2024-02-10T13:52:47.751Z,66.40
2024-02-10T13:55:16.253Z,66.11
2024-02-10T13:57:43.196Z,66.67
2024-02-10T14:00:12.958Z,66.26
2024-02-10T14:02:45.425Z,66.20
2024-02-10T14:05:12.718Z,66.89
2024-02-10T14:07:40.182Z,67.90
2024-02-10T14:10:08.822Z,68.95
2024-02-10T14:12:35.886Z,68.00
2024-02-10T14:15:02.867Z,69.71
2024-02-10T14:17:29.824Z,68.23
2024-02-10T14:19:56.864Z,68.03
2024-02-10T14:22:23.992Z,68.51
2024-02-10T14:24:50.961Z,68.80
2024-02-10T14:27:17.919Z,68.51
2024-02-10T14:29:44.860Z,68.36
2024-02-10T14:32:12.543Z,67.44
2024-02-10T14:34:44.401Z,68.03
2024-02-10T14:37:14.309Z,67.13
2024-02-10T14:39:43.781Z,67.46
2024-02-10T14:42:12.233Z,67.58
2024-02-10T14:44:43.875Z,66.85
2024-02-10T14:47:28.381Z,66.61
2024-02-10T14:49:58.582Z,66.63
2024-02-10T14:52:25.668Z,66.17
2024-02-10T14:54:52.769Z,66.43
2024-02-10T14:57:19.560Z,66.11
2024-02-10T14:59:46.375Z,66.81
2024-02-10T15:02:13.172Z,67.31
2024-02-10T15:04:43.057Z,67.02
2024-02-10T15:07:11.291Z,67.06
2024-02-10T15:09:38.527Z,68.32
2024-02-10T15:12:05.744Z,68.45
2024-02-10T15:14:33.140Z,70.18
2024-02-10T15:16:59.990Z,71.16
2024-02-10T15:19:26.949Z,71.32
2024-02-10T15:21:55.836Z,74.68
2024-02-10T15:24:22.625Z,73.56
2024-02-10T15:26:52.501Z,72.95
2024-02-10T15:29:24.260Z,73.78
2024-02-10T15:31:54.457Z,73.74
2024-02-10T15:34:21.653Z,76.19
2024-02-10T15:36:50.951Z,76.32
2024-02-10T15:39:20.771Z,74.60
2024-02-10T15:41:50.010Z,74.37
2024-02-10T15:44:17.215Z,75.15
2024-02-10T15:46:44.068Z,74.15
2024-02-10T15:49:14.377Z,73.39
2024-02-10T15:51:41.643Z,73.05
2024-02-10T15:54:11.364Z,73.34
2024-02-10T15:56:45.732Z,73.50
2024-02-10T15:59:12.952Z,75.48
2024-02-10T16:01:40.101Z,76.13
2024-02-10T16:04:10.323Z,77.32
2024-02-10T16:06:37.287Z,76.98
2024-02-10T16:09:07.304Z,76.37
2024-02-10T16:11:35.186Z,76.23
2024-02-10T16:14:03.458Z,76.14
2024-02-10T16:16:31.296Z,77.86
2024-02-10T16:18:59.521Z,78.33
2024-02-10T16:21:26.519Z,77.83
2024-02-10T16:24:02.416Z,77.12
2024-02-10T16:26:30.657Z,76.83
2024-02-10T16:28:57.871Z,76.97
2024-02-10T16:31:25.042Z,76.38
2024-02-10T16:33:52.483Z,77.26
2024-02-10T16:36:19.887Z,76.00
2024-02-10T16:38:49.129Z,76.96
2024-02-10T16:41:22.409Z,75.66
2024-02-10T16:43:50.927Z,75.97
2024-02-10T16:46:18.539Z,75.58
2024-02-10T16:48:45.873Z,74.99
2024-02-10T16:51:22.695Z,75.35
2024-02-10T16:53:51.099Z,75.79
2024-02-10T16:56:20.209Z,75.61
2024-02-10T16:58:47.489Z,76.10
2024-02-10T17:01:14.913Z,75.83
2024-02-10T17:03:42.650Z,74.81
2024-02-10T17:06:10.099Z,75.73
2024-02-10T17:08:37.652Z,76.07
2024-02-10T17:11:04.756Z,75.88
2024-02-10T17:13:31.783Z,74.91
2024-02-10T17:15:58.742Z,75.18
2024-02-10T17:18:35.847Z,75.74
2024-02-10T17:21:08.899Z,75.18
2024-02-10T17:23:35.851Z,73.75
2024-02-10T17:26:06.040Z,73.73
2024-02-10T17:28:33.535Z,73.24
2024-02-10T17:31:01.536Z,73.14
2024-02-10T17:33:29.696Z,73.16
2024-02-10T17:35:58.862Z,73.88
2024-02-10T17:38:25.830Z,73.61
2024-02-10T17:40:53.137Z,74.25
2024-02-10T17:43:21.030Z,74.38
2024-02-10T17:45:48.500Z,74.26
2024-02-10T17:48:15.511Z,74.99
2024-02-10T17:50:43.121Z,75.01
2024-02-10T17:53:11.393Z,75.86
2024-02-10T17:55:39.841Z,75.50
2024-02-10T17:58:07.073Z,74.73
2024-02-10T18:00:34.289Z,75.14
2024-02-10T18:03:02.611Z,75.32
2024-02-10T18:05:29.742Z,74.18
2024-02-10T18:07:58.426Z,73.85
2024-02-10T18:10:25.788Z,74.45
2024-02-10T18:12:52.856Z,76.00
2024-02-10T18:15:20.166Z,75.53
2024-02-10T18:17:47.427Z,75.15
2024-02-10T18:20:17.426Z,75.55
2024-02-10T18:22:45.913Z,77.10
2024-02-10T18:25:13.273Z,77.50
2024-02-10T18:27:43.115Z,78.35
2024-02-10T18:30:13.475Z,77.43
2024-02-10T18:32:44.742Z,78.52
2024-02-10T18:35:14.510Z,76.90
2024-02-10T18:37:41.550Z,76.14
2024-02-10T18:40:22.439Z,76.00
2024-02-10T18:42:49.366Z,77.35
2024-02-10T18:45:20.015Z,77.56
2024-02-10T18:47:46.907Z,77.74
2024-02-10T18:50:14.626Z,77.13
2024-02-10T18:52:41.768Z,77.30
2024-02-10T18:55:08.635Z,75.88
2024-02-10T18:57:36.285Z,76.16
2024-02-10T19:00:05.310Z,77.19
2024-02-10T19:02:32.335Z,77.61
2024-02-10T19:04:59.240Z,78.89
2024-02-10T19:07:26.342Z,80.95
2024-02-10T19:09:55.911Z,81.05
2024-02-10T19:12:22.744Z,81.43
2024-02-10T19:14:49.535Z,81.37
2024-02-10T19:17:17.412Z,82.22
2024-02-10T19:19:47.267Z,82.15
2024-02-10T19:22:15.191Z,82.51
2024-02-10T19:24:43.459Z,83.48
2024-02-10T19:27:11.378Z,83.52
2024-02-10T19:29:38.441Z,82.47
2024-02-10T19:32:06.838Z,83.34
2024-02-10T19:34:38.987Z,83.71
2024-02-10T19:37:06.807Z,81.85
2024-02-10T19:39:33.763Z,81.69
2024-02-10T19:42:17.264Z,81.05
2024-02-10T19:44:44.713Z,79.65
2024-02-10T19:47:12.627Z,78.00
2024-02-10T19:49:39.669Z,77.18
2024-02-10T19:52:09.751Z,75.66
2024-02-10T19:54:36.666Z,75.14
2024-02-10T19:57:06.675Z,76.19
2024-02-10T19:59:42.115Z,78.15
2024-02-10T20:02:09.493Z,80.61
2024-02-10T20:04:36.602Z,81.43
2024-02-10T20:07:06.743Z,81.75
2024-02-10T20:09:36.517Z,82.21
2024-02-10T20:12:06.218Z,81.72
2024-02-10T20:14:37.993Z,79.67
2024-02-10T20:17:05.932Z,78.78
2024-02-10T20:19:32.989Z,79.04
2024-02-10T20:22:01.067Z,79.28
2024-02-10T20:24:27.909Z,80.12
2024-02-10T20:26:54.706Z,80.62
2024-02-10T20:29:21.510Z,80.58
2024-02-10T20:31:48.851Z,80.46
2024-02-10T20:34:15.732Z,78.89
2024-02-10T20:36:42.531Z,78.68
2024-02-10T20:39:11.149Z,80.14
2024-02-10T20:41:37.943Z,78.78
2024-02-10T20:44:07.326Z,79.41
2024-02-10T20:46:35.277Z,77.94
2024-02-10T20:49:02.226Z,78.72
2024-02-10T20:51:29.076Z,78.04
2024-02-10T20:53:58.689Z,77.87
2024-02-10T20:56:25.815Z,77.52
2024-02-10T20:58:52.621Z,77.60
2024-02-10T21:01:24.568Z,77.09
2024-02-10T21:03:51.463Z,77.89
2024-02-10T21:06:18.311Z,77.31
2024-02-10T21:08:45.118Z,76.93
2024-02-10T21:11:12.415Z,77.16
2024-02-10T21:13:39.346Z,75.57
2024-02-10T21:16:06.536Z,76.07
2024-02-10T21:18:33.401Z,76.78
2024-02-10T21:21:00.646Z,76.33
2024-02-10T21:23:27.575Z,76.27
2024-02-10T21:25:54.550Z,75.80
2024-02-10T21:28:24.345Z,75.31
2024-02-10T21:30:51.285Z,75.68
2024-02-10T21:33:18.285Z,74.93
2024-02-10T21:35:45.247Z,74.82
2024-02-10T21:38:15.134Z,75.05
2024-02-10T21:40:45.416Z,74.18
2024-02-10T21:43:12.185Z,74.44
2024-02-10T21:45:43.390Z,74.34
2024-02-10T21:48:14.440Z,74.46
2024-02-10T21:50:42.530Z,73.09
2024-02-10T21:53:11.457Z,72.65
2024-02-10T21:55:38.664Z,73.18
2024-02-10T21:58:05.701Z,72.43
2024-02-10T22:00:32.525Z,71.82
2024-02-10T22:03:01.774Z,72.42
2024-02-10T22:05:28.601Z,72.11
2024-02-10T22:07:58.993Z,72.01
2024-02-10T22:10:29.904Z,71.94
2024-02-10T22:12:56.683Z,70.91
2024-02-10T22:15:23.652Z,70.69
2024-02-10T22:17:51.444Z,70.60
2024-02-10T22:20:18.427Z,71.13
2024-02-10T22:22:45.373Z,71.21
2024-02-10T22:25:12.320Z,71.29
2024-02-10T22:27:39.665Z,70.87
2024-02-10T22:30:07.410Z,70.94
2024-02-10T22:32:34.240Z,70.26
2024-02-10T22:35:02.213Z,70.20
2024-02-10T22:37:30.488Z,69.42
2024-02-10T22:40:01.202Z,69.68
2024-02-10T22:42:29.360Z,69.22
2024-02-10T22:44:58.077Z,70.31
2024-02-10T22:47:25.101Z,69.36
2024-02-10T22:49:52.888Z,68.42
2024-02-10T22:52:20.250Z,68.43
2024-02-10T22:54:48.983Z,69.30
2024-02-10T22:57:15.957Z,68.83
2024-02-10T22:59:45.156Z,70.19
2024-02-10T23:02:13.152Z,70.73
2024-02-10T23:04:48.921Z,69.79
2024-02-10T23:07:18.603Z,70.13
2024-02-10T23:09:45.679Z,68.78
2024-02-10T23:12:16.161Z,68.11
2024-02-10T23:14:51.216Z,68.12
2024-02-10T23:17:19.727Z,67.69
2024-02-10T23:19:52.892Z,68.33
2024-02-10T23:22:27.258Z,68.08
2024-02-10T23:24:54.251Z,69.17
2024-02-10T23:27:21.658Z,69.01
2024-02-10T23:29:50.875Z,69.02
2024-02-10T23:32:19.931Z,69.15
2024-02-10T23:34:48.153Z,69.48
2024-02-10T23:37:16.380Z,69.03
2024-02-10T23:39:47.134Z,68.07
2024-02-10T23:42:16.552Z,69.12
2024-02-10T23:44:44.470Z,69.25
2024-02-10T23:47:19.294Z,70.42
2024-02-10T23:49:49.709Z,71.56
2024-02-10T23:52:16.963Z,71.68
2024-02-10T23:54:44.044Z,71.99
2024-02-10T23:57:11.535Z,72.48
2024-02-10T23:59:43.447Z,72.82
